Time;durP1;ratioP1;P1;durP2;ratioP2;P2;SDS_P1;SDS_P2;PMS_P1;PMS_P2;Temp;Humidity;BMP_temperature;BMP_pressure;BME280_temperature;BME280_humidity;BME280_pressure;Samples;Min_cycle;Max_cycle;Signal;HPM_P1;HPM_P2
2023/10/13 00:00:41;;;;;;;13.53;5.47;;;;;;;12.34;100.00;94157.78;5030577;28;20045;-59
2023/10/13 00:03:14;;;;;;;10.90;5.38;;;;;;;12.28;100.00;94153.19;5030039;28;20060;-58
2023/10/13 00:05:42;;;;;;;12.45;5.60;;;;;;;12.32;100.00;94149.16;5029252;28;20099;-59
2023/10/13 00:08:10;;;;;;;12.00;5.18;;;;;;;12.29;100.00;94150.00;5029914;28;20037;-59
2023/10/13 00:10:36;;;;;;;10.00;5.30;;;;;;;12.22;100.00;94154.88;5030374;28;20053;-59
2023/10/13 00:13:12;;;;;;;11.30;5.10;;;;;;;12.20;100.00;94147.03;5029932;28;20047;-59
2023/10/13 00:15:59;;;;;;;10.35;5.10;;;;;;;12.18;100.00;94157.69;5029487;28;20849;-59
2023/10/13 00:18:33;;;;;;;9.50;5.00;;;;;;;12.15;100.00;94153.00;5029758;28;20045;-58
2023/10/13 00:21:12;;;;;;;9.65;4.78;;;;;;;12.10;100.00;94157.03;5030097;28;20102;-59
2023/10/13 00:23:53;;;;;;;9.40;4.82;;;;;;;12.02;100.00;94154.81;5028949;28;20573;-59
2023/10/13 00:26:27;;;;;;;13.53;5.10;;;;;;;12.02;100.00;94152.06;5016651;28;20052;-58
2023/10/13 00:29:16;;;;;;;18.17;8.13;;;;;;;11.96;100.00;94152.53;5030119;28;20487;-58
2023/10/13 00:31:47;;;;;;;12.82;6.60;;;;;;;11.93;100.00;94149.84;5029130;28;20449;-58
2023/10/13 00:34:27;;;;;;;11.65;5.35;;;;;;;11.89;100.00;94155.41;5029839;28;20057;-59
2023/10/13 00:39:40;;;;;;;12.37;5.43;;;;;;;11.74;100.00;94143.06;5028477;28;20394;-58
2023/10/13 00:42:08;;;;;;;14.88;5.10;;;;;;;11.64;100.00;94150.28;5029514;28;20458;-60
2023/10/13 00:44:38;;;;;;;11.60;5.60;;;;;;;11.60;100.00;94146.81;5029667;28;20051;-59
2023/10/13 00:47:07;;;;;;;11.05;5.13;;;;;;;11.63;100.00;94146.00;5029756;28;20057;-59
2023/10/13 00:49:39;;;;;;;12.55;5.43;;;;;;;11.64;100.00;94146.75;5027719;28;20044;-59
2023/10/13 00:52:09;;;;;;;13.27;5.23;;;;;;;11.62;100.00;94147.16;5028083;28;20038;-59
2023/10/13 00:54:37;;;;;;;10.57;5.30;;;;;;;11.59;100.00;94143.28;5027096;28;20114;-59
2023/10/13 00:57:12;;;;;;;12.65;5.03;;;;;;;11.60;100.00;94146.81;5029558;28;20500;-59
2023/10/13 00:59:42;;;;;;;11.45;5.32;;;;;;;11.60;100.00;94146.81;5027125;28;20064;-59
2023/10/13 01:04:54;;;;;;;9.97;4.60;;;;;;;11.52;100.00;94148.88;5029360;28;20080;-59
2023/10/13 01:07:22;;;;;;;11.10;4.60;;;;;;;11.43;100.00;94143.16;5028754;28;20046;-58
2023/10/13 01:09:49;;;;;;;9.23;4.95;;;;;;;11.36;100.00;94135.78;5029264;28;20048;-59
2023/10/13 01:12:16;;;;;;;11.45;5.38;;;;;;;11.36;100.00;94144.00;5028552;28;20048;-59
2023/10/13 01:14:44;;;;;;;9.60;5.00;;;;;;;11.42;100.00;94141.56;5029072;28;20053;-59
2023/10/13 01:17:10;;;;;;;12.03;4.93;;;;;;;11.44;100.00;94141.16;5028624;28;20474;-59
2023/10/13 01:19:45;;;;;;;11.77;4.78;;;;;;;11.40;100.00;94139.25;5023097;28;20486;-59
2023/10/13 01:22:12;;;;;;;12.70;5.13;;;;;;;11.41;100.00;94134.53;5012392;28;20053;-59
2023/10/13 01:24:39;;;;;;;9.45;4.50;;;;;;;11.44;100.00;94138.41;5028712;28;20072;-60
2023/10/13 01:27:20;;;;;;;11.82;4.22;;;;;;;11.41;100.00;94134.53;5028245;28;20111;-58
2023/10/13 01:30:09;;;;;;;10.13;4.37;;;;;;;11.26;100.00;94135.94;5028686;28;20047;-59
2023/10/13 01:32:45;;;;;;;12.68;4.70;;;;;;;11.29;100.00;94127.66;5027876;28;20793;-59
2023/10/13 01:35:11;;;;;;;10.60;4.78;;;;;;;11.26;100.00;94128.47;5028126;28;20045;-59
2023/10/13 01:37:38;;;;;;;12.70;4.90;;;;;;;11.27;100.00;94129.22;5028943;28;20053;-59
2023/10/13 01:40:05;;;;;;;10.70;4.75;;;;;;;11.20;100.00;94127.38;5028952;28;20049;-59
2023/10/13 01:42:32;;;;;;;8.77;4.60;;;;;;;11.12;100.00;94125.91;5026482;28;21576;-59
2023/10/13 01:45:05;;;;;;;12.50;4.50;;;;;;;11.12;100.00;94134.94;5017885;28;20047;-58
2023/10/13 01:47:33;;;;;;;10.43;4.68;;;;;;;11.15;100.00;94133.34;5008738;28;20339;-60
2023/10/13 01:50:20;;;;;;;10.32;4.35;;;;;;;11.16;100.00;94140.38;5028521;28;20045;-58
2023/10/13 01:52:47;;;;;;;9.60;4.65;;;;;;;11.17;100.00;94136.47;5027955;28;20643;-59
2023/10/13 01:55:14;;;;;;;8.00;4.43;;;;;;;11.13;100.00;94127.50;5028364;28;20049;-59
2023/10/13 01:57:46;;;;;;;10.27;4.53;;;;;;;11.11;100.00;94127.13;5028274;28;20041;-58
2023/10/13 02:00:19;;;;;;;10.85;5.07;;;;;;;11.02;100.00;94126.84;5028222;28;20440;-59
2023/10/13 02:02:49;;;;;;;9.13;4.65;;;;;;;11.02;100.00;94124.88;5028434;28;20049;-59
2023/10/13 02:05:17;;;;;;;12.13;5.22;;;;;;;10.93;100.00;94124.63;5028411;28;20045;-58
2023/10/13 02:07:47;;;;;;;8.47;4.43;;;;;;;11.00;100.00;94117.03;5027924;28;20049;-58
2023/10/13 02:10:14;;;;;;;9.75;4.97;;;;;;;11.00;100.00;94119.78;5027651;28;20056;-59
2023/10/13 02:12:43;;;;;;;14.63;5.05;;;;;;;10.97;100.00;94122.59;5028328;28;20797;-59
2023/10/13 02:15:20;;;;;;;11.23;4.60;;;;;;;10.95;100.00;94122.25;5027413;28;20566;-58
2023/10/13 02:17:51;;;;;;;12.35;5.30;;;;;;;10.91;100.00;94116.78;5028135;28;20144;-59
2023/10/13 02:20:18;;;;;;;11.03;4.93;;;;;;;10.88;100.00;94111.34;5027750;28;20042;-58
2023/10/13 02:22:51;;;;;;;12.35;4.75;;;;;;;10.79;100.00;94114.59;5027782;28;20045;-58
2023/10/13 02:25:35;;;;;;;11.57;4.50;;;;;;;10.62;100.00;94123.81;5027214;28;20048;-60
2023/10/13 02:28:07;;;;;;;11.57;4.85;;;;;;;10.62;100.00;94124.59;5026980;28;20505;-59
2023/10/13 02:30:44;;;;;;;9.88;4.90;;;;;;;10.57;100.00;94120.34;5018191;28;20481;-59
2023/10/13 02:33:13;;;;;;;11.43;4.80;;;;;;;10.53;100.00;94124.31;5032043;28;20071;-59
2023/10/13 02:35:46;;;;;;;12.05;5.05;;;;;;;10.51;100.00;94116.50;5030815;28;20401;-60
2023/10/13 02:38:13;;;;;;;8.98;4.70;;;;;;;10.48;100.00;94116.53;5030246;28;20546;-59
2023/10/13 02:40:40;;;;;;;11.40;4.90;;;;;;;10.44;100.00;94118.53;5030855;28;20041;-59
2023/10/13 02:43:07;;;;;;;14.05;5.97;;;;;;;10.35;100.00;94114.31;5030164;28;20401;-59
2023/10/13 02:45:37;;;;;;;11.93;5.43;;;;;;;10.37;100.00;94111.94;5031981;28;20041;-59
2023/10/13 02:48:17;;;;;;;12.18;5.60;;;;;;;10.36;100.00;94109.63;5030041;28;20049;-59
2023/10/13 02:50:45;;;;;;;10.68;5.70;;;;;;;10.34;100.00;94112.78;5031039;28;23041;-58
2023/10/13 02:53:12;;;;;;;10.65;4.80;;;;;;;10.29;100.00;94107.72;5029982;28;20049;-59
2023/10/13 02:56:28;;;;;;;9.88;5.03;;;;;;;10.22;100.00;94107.00;5031455;28;20076;-59
2023/10/13 02:59:04;;;;;;;10.40;4.60;;;;;;;10.08;100.00;94099.69;5028015;28;21770;-58
2023/10/13 03:01:33;;;;;;;12.18;5.38;;;;;;;9.99;100.00;94090.00;5030732;28;20592;-59
2023/10/13 03:04:05;;;;;;;9.30;4.80;;;;;;;10.02;100.00;94098.59;5031641;28;20045;-59
2023/10/13 03:06:35;;;;;;;11.05;4.90;;;;;;;10.02;100.00;94095.84;5030782;28;20635;-59
2023/10/13 03:09:21;;;;;;;11.57;5.03;;;;;;;10.01;100.00;94089.59;5031713;28;20429;-59
2023/10/13 03:11:49;;;;;;;10.40;4.73;;;;;;;10.02;100.00;94087.63;5030902;28;20572;-58
2023/10/13 03:14:32;;;;;;;10.10;4.97;;;;;;;9.99;100.00;94087.25;5031008;28;20053;-58
2023/10/13 03:17:08;;;;;;;15.48;8.68;;;;;;;9.89;100.00;94081.88;5031413;28;20045;-59
2023/10/13 03:19:36;;;;;;;37.85;18.75;;;;;;;9.81;100.00;94078.44;5030718;28;20103;-59
2023/10/13 03:24:36;;;;;;;12.87;5.60;;;;;;;9.77;100.00;94069.47;5030245;28;20092;-58
2023/10/13 03:27:09;;;;;;;10.38;4.82;;;;;;;9.76;100.00;94067.94;5031260;28;20068;-59
2023/10/13 03:29:42;;;;;;;12.50;5.63;;;;;;;9.74;100.00;94081.25;5029825;28;20187;-58
2023/10/13 03:32:16;;;;;;;10.52;4.80;;;;;;;9.75;100.00;94063.63;5030688;28;20042;-59
2023/10/13 03:34:53;;;;;;;11.50;5.40;;;;;;;9.76;100.00;94068.69;5017581;28;20037;-59
2023/10/13 03:37:40;;;;;;;10.53;5.20;;;;;;;9.64;100.00;94068.41;5029985;28;20053;-58
2023/10/13 03:40:48;;;;;;;12.07;6.00;;;;;;;9.59;100.00;94064.94;5030013;28;20143;-59
2023/10/13 03:45:43;;;;;;;9.98;5.63;;;;;;;9.65;100.00;94068.00;5029508;28;20087;-59
2023/10/13 03:53:54;;;;;;;14.40;5.78;;;;;;;9.58;100.00;94062.63;5030046;28;20448;-60
2023/10/13 03:56:28;;;;;;;11.73;5.50;;;;;;;9.63;100.00;94064.13;5030221;28;20487;-59
2023/10/13 03:59:05;;;;;;;11.95;5.75;;;;;;;9.58;100.00;94057.91;5030977;28;20041;-58
2023/10/13 04:17:41;;;;;;;11.37;6.00;;;;;;;9.43;100.00;94059.19;5027840;28;20087;-59
2023/10/13 04:49:49;;;;;;;44.28;18.52;;;;;;;9.23;100.00;94041.78;5027177;28;20041;-60
2023/10/13 04:53:01;;;;;;;68.32;27.33;;;;;;;9.23;100.00;94045.28;5028231;28;20053;-59
2023/10/13 04:56:53;;;;;;;25.50;11.18;;;;;;;9.17;100.00;94038.69;5017813;28;20405;-58
2023/10/13 04:59:15;;;;;;;30.10;9.90;;;;;;;9.19;100.00;94039.84;5024950;28;20053;-59
2023/10/13 05:44:33;;;;;;;22.55;9.75;;;;;;;9.18;100.00;94034.78;5028645;28;20122;-60
2023/10/13 05:51:43;;;;;;;12.95;7.72;;;;;;;9.04;100.00;94032.16;5011996;28;20049;-60
2023/10/13 06:29:54;;;;;;;18.52;9.02;;;;;;;9.84;100.00;94044.75;5028192;28;20043;-59
2023/10/13 06:32:25;;;;;;;19.27;10.20;;;;;;;9.92;100.00;94048.97;5027902;28;20049;-59
2023/10/13 06:34:57;;;;;;;22.03;9.23;;;;;;;10.05;100.00;94040.22;5028009;28;20080;-58
2023/10/13 06:37:32;;;;;;;17.83;9.23;;;;;;;10.02;100.00;94039.06;5027727;28;20051;-61
2023/10/13 06:40:07;;;;;;;18.50;9.38;;;;;;;10.16;100.00;94038.91;5028463;28;20046;-59
2023/10/13 06:42:42;;;;;;;18.75;9.80;;;;;;;10.31;100.00;94027.78;5026847;28;21656;-59
2023/10/13 06:45:11;;;;;;;20.15;9.27;;;;;;;10.56;100.00;94033.75;5027444;28;20449;-59
2023/10/13 06:47:44;;;;;;;19.17;9.60;;;;;;;10.68;100.00;94034.34;5027969;28;20505;-60
2023/10/13 06:50:15;;;;;;;16.23;8.73;;;;;;;10.91;100.00;94028.16;5027347;28;20045;-59
2023/10/13 06:52:49;;;;;;;19.23;8.20;;;;;;;11.00;100.00;94025.66;5027402;28;20039;-60
2023/10/13 06:55:34;;;;;;;17.15;8.10;;;;;;;11.26;100.00;94026.03;5025999;28;20080;-60
2023/10/13 06:58:01;;;;;;;19.17;8.57;;;;;;;11.49;100.00;94028.81;5027089;28;20657;-60
2023/10/13 07:00:29;;;;;;;16.90;8.50;;;;;;;11.77;100.00;94029.47;5027076;28;20401;-60
2023/10/13 07:03:05;;;;;;;15.43;7.78;;;;;;;12.74;100.00;94025.63;5027610;28;20041;-60
2023/10/13 07:05:41;;;;;;;13.98;7.53;;;;;;;15.28;100.00;94022.13;5026811;28;20355;-60
2023/10/13 07:08:09;;;;;;;14.95;7.28;;;;;;;17.72;100.00;94021.66;5014898;28;20371;-60
2023/10/13 07:10:48;;;;;;;11.50;6.57;;;;;;;19.19;89.49;94031.19;5027661;28;20049;-60
2023/10/13 07:13:17;;;;;;;10.07;5.70;;;;;;;20.11;81.97;94025.19;5027550;28;20466;-61
2023/10/13 07:15:47;;;;;;;11.88;5.90;;;;;;;20.88;75.62;94029.97;5029702;28;20480;-61
2023/10/13 07:18:19;;;;;;;11.02;5.45;;;;;;;21.63;71.07;94027.13;5031360;28;20114;-61
2023/10/13 07:20:45;;;;;;;10.48;5.47;;;;;;;22.83;66.66;94025.38;5031410;28;20401;-62
2023/10/13 07:23:19;;;;;;;10.80;5.10;;;;;;;23.93;58.74;94033.69;5031003;28;20056;-62
2023/10/13 07:26:03;;;;;;;10.77;5.10;;;;;;;23.88;56.38;94032.38;5031279;28;20106;-61
2023/10/13 07:28:43;;;;;;;9.60;4.88;;;;;;;24.86;53.20;94021.09;5030949;28;20045;-62
2023/10/13 07:31:14;;;;;;;10.15;4.68;;;;;;;25.33;49.72;94024.22;5031058;28;20045;-62
2023/10/13 07:33:41;;;;;;;7.53;4.22;;;;;;;25.93;48.08;94029.59;5018375;28;20049;-62
2023/10/13 07:36:15;;;;;;;7.53;4.53;;;;;;;26.77;47.02;94028.56;5029424;28;20050;-61
2023/10/13 07:38:48;;;;;;;8.90;4.10;;;;;;;26.37;44.64;94033.56;5031094;28;20037;-61
2023/10/13 07:41:15;;;;;;;9.35;4.30;;;;;;;26.42;44.49;94034.81;5030547;28;20048;-61
2023/10/13 07:43:44;;;;;;;10.00;4.25;;;;;;;26.99;43.32;94030.50;5031111;28;20052;-61
2023/10/13 07:46:12;;;;;;;11.48;4.00;;;;;;;27.47;42.04;94031.25;5030619;28;20045;-61
2023/10/13 07:48:45;;;;;;;7.30;4.10;;;;;;;27.47;41.28;94034.81;5031314;28;20090;-61
2023/10/13 07:51:18;;;;;;;7.43;3.70;;;;;;;27.15;41.27;94030.94;5030546;28;20448;-62
2023/10/13 07:53:48;;;;;;;7.70;3.80;;;;;;;28.52;40.05;94038.47;5031133;28;20038;-61
2023/10/13 07:56:18;;;;;;;9.40;3.55;;;;;;;29.54;36.99;94034.25;5030085;28;20103;-62
2023/10/13 07:59:00;;;;;;;8.32;3.47;;;;;;;29.56;36.08;94031.66;5030745;28;20049;-62
2023/10/13 08:01:32;;;;;;;6.43;3.42;;;;;;;30.61;34.00;94018.25;5030380;28;20055;-60
2023/10/13 08:04:11;;;;;;;9.03;3.53;;;;;;;31.26;32.63;94024.34;5030351;28;20053;-60
2023/10/13 08:06:43;;;;;;;8.43;3.20;;;;;;;27.51;35.79;94037.34;5029652;28;20547;-60
2023/10/13 08:11:56;;;;;;;8.00;3.50;;;;;;;27.43;38.12;94025.88;5028815;28;20491;-61
2023/10/13 08:14:33;;;;;;;10.23;3.55;;;;;;;28.86;34.93;94015.47;5029945;28;20303;-61
2023/10/13 08:17:11;;;;;;;9.63;4.10;;;;;;;27.12;36.77;94020.69;5030285;28;20118;-60
2023/10/13 08:19:44;;;;;;;10.57;4.82;;;;;;;26.37;38.08;94013.13;5028453;28;20886;-60
2023/10/13 08:27:34;;;;;;;11.68;7.70;;;;;;;24.58;42.04;94013.34;5028194;28;20516;-60
2023/10/13 08:37:59;;;;;;;9.80;4.60;;;;;;;27.97;35.71;93990.56;5028966;28;20041;-59
2023/10/13 08:40:43;;;;;;;8.82;4.07;;;;;;;28.44;34.55;94000.81;5028771;28;20448;-60
2023/10/13 08:43:11;;;;;;;9.93;4.90;;;;;;;26.02;38.14;94000.44;5029180;28;20510;-59
2023/10/13 09:04:27;;;;;;;10.43;4.93;;;;;;;27.31;36.26;93984.97;5029017;28;20045;-59
2023/10/13 09:07:07;;;;;;;7.40;3.78;;;;;;;27.40;35.76;93993.09;5027989;28;21572;-59
2023/10/13 09:15:05;;;;;;;9.10;5.03;;;;;;;26.56;37.09;93976.69;5020148;28;20045;-59
2023/10/13 09:17:41;;;;;;;8.25;3.80;;;;;;;26.58;36.67;93980.56;5019958;28;21693;-60
2023/10/13 09:25:38;;;;;;;8.70;4.50;;;;;;;27.17;36.34;93975.59;5028574;28;20055;-59
2023/10/13 09:28:18;;;;;;;23.92;14.93;;;;;;;27.66;35.72;93958.03;5029085;28;20494;-59
2023/10/13 09:30:46;;;;;;;24.83;17.05;;;;;;;27.05;36.40;93968.50;5027808;28;21625;-60
2023/10/13 09:33:16;;;;;;;23.27;14.40;;;;;;;29.51;33.40;93959.75;5028375;28;20045;-59
2023/10/13 09:35:49;;;;;;;21.27;14.63;;;;;;;29.48;32.31;93947.47;5029192;28;20040;-59
2023/10/13 09:38:17;;;;;;;9.55;6.03;;;;;;;28.90;33.03;93956.59;5028164;28;20076;-60
2023/10/13 09:40:50;;;;;;;8.13;3.97;;;;;;;29.44;32.17;93952.69;5028729;28;20045;-59
2023/10/13 09:43:21;;;;;;;9.43;3.55;;;;;;;30.45;30.75;93938.75;5028371;28;20409;-59
2023/10/13 09:46:02;;;;;;;9.05;3.13;;;;;;;29.00;32.23;93940.78;5028825;28;20048;-60
2023/10/13 09:48:46;;;;;;;13.67;3.50;;;;;;;29.05;32.22;93939.91;5028029;28;20037;-60
2023/10/13 09:51:19;;;;;;;8.45;3.90;;;;;;;27.65;34.59;93945.22;5027684;28;20049;-60
2023/10/13 09:53:57;;;;;;;11.38;5.60;;;;;;;27.84;33.62;93934.75;5028805;28;20046;-59
2023/10/13 09:56:54;;;;;;;19.65;11.38;;;;;;;28.71;33.21;93933.25;5016586;28;21627;-59
2023/10/13 09:59:35;;;;;;;31.63;20.38;;;;;;;28.77;33.41;93922.63;5027961;28;20049;-59
2023/10/13 10:02:08;;;;;;;13.70;6.63;;;;;;;27.85;33.10;93930.66;5028689;28;20045;-59
2023/10/13 10:04:44;;;;;;;8.07;4.30;;;;;;;27.82;33.11;93931.69;5027402;28;20742;-59
2023/10/13 10:07:11;;;;;;;9.77;5.15;;;;;;;28.58;31.87;93919.81;5027889;28;20075;-60
2023/10/13 10:09:38;;;;;;;7.68;3.80;;;;;;;29.19;30.78;93914.56;5028639;28;20409;-60
2023/10/13 10:12:25;;;;;;;7.63;3.17;;;;;;;29.83;29.99;93913.72;5028683;28;20052;-60
2023/10/13 10:15:20;;;;;;;7.60;3.87;;;;;;;29.27;30.89;93912.63;5027554;28;20429;-59
2023/10/13 10:17:49;;;;;;;9.02;5.10;;;;;;;30.31;29.40;93911.03;5027644;28;21670;-60
2023/10/13 10:20:42;;;;;;;9.02;4.40;;;;;;;30.10;30.06;93911.66;5027638;28;20049;-61
2023/10/13 10:23:17;;;;;;;12.15;5.20;;;;;;;30.16;30.11;93900.97;5027553;28;20098;-60
2023/10/13 10:25:46;;;;;;;6.93;3.38;;;;;;;31.46;28.21;93900.94;5028339;28;20046;-60
2023/10/13 10:28:15;;;;;;;10.00;2.80;;;;;;;30.32;26.97;93901.19;5025698;28;20045;-60
2023/10/13 10:30:43;;;;;;;7.82;2.88;;;;;;;31.34;25.92;93891.16;5028325;28;20042;-60
2023/10/13 10:33:15;;;;;;;8.55;3.08;;;;;;;30.99;26.63;93894.06;5027808;28;20049;-61
2023/10/13 10:35:43;;;;;;;10.20;2.60;;;;;;;30.82;26.28;93890.84;5028251;28;20490;-59
2023/10/13 10:41:00;;;;;;;9.80;3.10;;;;;;;32.89;24.78;93887.94;5016179;28;20579;-60
2023/10/13 10:43:41;;;;;;;8.13;2.60;;;;;;;31.11;24.63;93888.13;5027805;28;20069;-61
2023/10/13 10:46:11;;;;;;;8.00;2.65;;;;;;;30.96;24.78;93875.31;5027770;28;20045;-61
2023/10/13 10:48:44;;;;;;;10.23;2.97;;;;;;;31.41;24.51;93887.63;5028235;28;20114;-60
2023/10/13 10:53:45;;;;;;;7.30;2.97;;;;;;;32.36;24.58;93880.72;5031159;28;20052;-61
2023/10/13 10:56:20;;;;;;;9.02;3.00;;;;;;;31.67;25.51;93871.78;5031564;28;20053;-61
2023/10/13 10:58:48;;;;;;;7.45;2.80;;;;;;;31.83;23.97;93874.19;5030700;28;20042;-60
2023/10/13 11:01:20;;;;;;;8.15;2.90;;;;;;;31.72;25.13;93868.78;5031038;28;20189;-60
2023/10/13 11:04:13;;;;;;;7.30;2.67;;;;;;;31.86;24.58;93872.28;5031561;28;20318;-61
2023/10/13 11:06:56;;;;;;;7.47;3.10;;;;;;;31.62;24.08;93862.09;5030915;28;20156;-61
2023/10/13 11:11:57;;;;;;;11.25;2.88;;;;;;;30.67;24.47;93846.13;5031386;28;20041;-60
2023/10/13 11:14:26;;;;;;;6.90;2.45;;;;;;;31.49;24.45;93848.00;5031645;28;20053;-60
2023/10/13 11:16:59;;;;;;;6.03;2.92;;;;;;;31.04;24.43;93844.97;5031388;28;20114;-61
2023/10/13 11:19:37;;;;;;;6.23;2.60;;;;;;;30.63;24.87;93837.94;5031299;28;20045;-60
2023/10/13 11:22:33;;;;;;;6.50;2.60;;;;;;;30.99;25.10;93837.38;5031085;28;20077;-59
2023/10/13 11:25:11;;;;;;;7.10;2.75;;;;;;;30.64;24.56;93828.13;5030447;28;21683;-60
2023/10/13 11:28:06;;;;;;;10.15;3.10;;;;;;;30.46;24.93;93827.03;5028735;28;20686;-60
2023/10/13 11:33:06;;;;;;;9.43;2.70;;;;;;;29.62;27.07;93817.41;5030246;28;20053;-59
2023/10/13 11:38:49;;;;;;;7.95;2.70;;;;;;;28.62;28.44;93808.09;5028723;28;20051;-59
2023/10/13 11:41:18;;;;;;;9.75;5.55;;;;;;;26.22;32.22;93822.91;5030079;28;20091;-59
2023/10/13 11:49:18;;;;;;;6.00;2.80;;;;;;;24.94;34.75;93808.78;5018025;28;20042;-59
2023/10/13 11:51:49;;;;;;;7.75;3.00;;;;;;;24.99;35.05;93805.19;5029094;28;20365;-58
2023/10/13 11:54:21;;;;;;;8.30;2.90;;;;;;;24.66;36.06;93798.34;5030185;28;20405;-58
2023/10/13 11:56:49;;;;;;;7.55;3.00;;;;;;;24.36;36.25;93794.47;5029936;28;20051;-58
2023/10/13 11:59:24;;;;;;;7.60;2.90;;;;;;;24.78;36.73;93804.69;5028543;28;20045;-61
2023/10/13 12:04:43;;;;;;;11.02;2.95;;;;;;;24.83;36.07;93797.53;5018046;28;21656;-61
2023/10/13 12:07:19;;;;;;;8.20;2.85;;;;;;;24.83;36.38;93783.50;5029716;28;21307;-61
2023/10/13 12:12:27;;;;;;;10.70;3.10;;;;;;;24.64;36.07;93786.84;5029741;28;20049;-61
2023/10/13 12:14:55;;;;;;;8.77;3.17;;;;;;;24.47;37.13;93784.03;5030028;28;20517;-61
2023/10/13 12:17:31;;;;;;;8.18;3.40;;;;;;;24.21;37.96;93786.31;5029500;28;20049;-61
2023/10/13 12:20:04;;;;;;;7.53;2.88;;;;;;;24.09;38.57;93771.53;5029530;28;20099;-60
2023/10/13 12:22:35;;;;;;;8.05;2.97;;;;;;;24.17;38.04;93769.75;5028897;28;20037;-61
2023/10/13 12:25:18;;;;;;;8.90;3.20;;;;;;;24.25;38.00;93762.34;5029883;28;20057;-61
2023/10/13 12:27:48;;;;;;;8.20;3.08;;;;;;;24.64;37.37;93772.06;5027332;28;21726;-61
2023/10/13 12:30:22;;;;;;;6.93;3.00;;;;;;;24.71;35.75;93771.56;5028473;28;20055;-61
2023/10/13 12:33:06;;;;;;;8.63;3.10;;;;;;;24.65;34.70;93765.94;5030426;28;20429;-61
2023/10/13 12:35:44;;;;;;;5.65;3.10;;;;;;;24.70;34.86;93761.59;5028847;28;20831;-61
2023/10/13 12:38:36;;;;;;;10.30;3.00;;;;;;;24.99;34.41;93748.28;5029791;28;20046;-61
2023/10/13 12:52:25;;;;;;;7.40;3.10;;;;;;;24.80;34.53;93729.19;5029518;28;20041;-61
2023/10/13 12:57:26;;;;;;;6.07;3.03;;;;;;;24.83;35.15;93719.75;5029289;28;20071;-60
2023/10/13 12:59:54;;;;;;;7.30;3.10;;;;;;;24.92;34.90;93725.06;5029990;28;20110;-61
2023/10/13 13:02:21;;;;;;;9.93;3.10;;;;;;;24.88;35.06;93716.16;5029015;28;20046;-61
2023/10/13 13:04:54;;;;;;;8.57;3.20;;;;;;;25.06;35.17;93719.66;5030013;28;20494;-62
2023/10/13 13:07:21;;;;;;;8.65;2.92;;;;;;;24.74;34.75;93708.03;5028748;28;20530;-61
2023/10/13 13:09:48;;;;;;;7.25;3.20;;;;;;;24.83;34.90;93702.13;5027939;28;20108;-62
2023/10/13 13:12:15;;;;;;;7.03;3.15;;;;;;;24.99;34.74;93698.53;5028039;28;20067;-61
2023/10/13 13:14:46;;;;;;;7.93;3.15;;;;;;;25.14;34.25;93698.19;5029140;28;20041;-62
2023/10/13 13:17:13;;;;;;;7.73;3.17;;;;;;;25.00;34.51;93700.03;5028746;28;20110;-61
2023/10/13 13:19:40;;;;;;;9.98;3.15;;;;;;;25.01;34.39;93698.75;5029089;28;20039;-61
2023/10/13 13:22:11;;;;;;;9.88;3.70;;;;;;;25.03;33.89;93695.41;5026978;28;20114;-61
2023/10/13 13:24:45;;;;;;;8.63;3.20;;;;;;;25.03;34.56;93689.81;5029393;28;20042;-61
2023/10/13 13:27:14;;;;;;;7.03;3.13;;;;;;;24.98;34.54;93685.00;5014578;28;20045;-61
2023/10/13 13:29:41;;;;;;;7.13;3.00;;;;;;;24.94;34.22;93685.25;5028975;28;20119;-61
2023/10/13 13:32:28;;;;;;;9.18;3.00;;;;;;;24.83;34.70;93694.47;5028475;28;20452;-61
2023/10/13 13:35:05;;;;;;;7.38;3.00;;;;;;;24.90;34.57;93691.13;5029165;28;20042;-61
2023/10/13 13:37:32;;;;;;;10.27;3.17;;;;;;;24.84;34.60;93675.59;5027673;28;20041;-62
2023/10/13 13:40:14;;;;;;;8.18;3.30;;;;;;;24.71;35.26;93676.91;5028663;28;20042;-61
2023/10/13 13:42:42;;;;;;;6.03;3.10;;;;;;;24.74;34.86;93677.91;5025037;28;21478;-61
2023/10/13 13:45:27;;;;;;;9.75;3.10;;;;;;;24.66;34.88;93679.72;5027980;28;20050;-61
2023/10/13 13:47:55;;;;;;;9.40;3.13;;;;;;;24.68;35.26;93666.69;5024857;28;20391;-60
2023/10/13 13:50:29;;;;;;;6.70;3.10;;;;;;;24.71;35.15;93667.72;5021191;28;20571;-62
2023/10/13 13:52:57;;;;;;;12.32;3.30;;;;;;;24.63;35.10;93667.50;5021459;28;20049;-61
2023/10/13 13:55:28;;;;;;;7.03;3.10;;;;;;;24.55;34.90;93671.31;5028065;28;20067;-61
2023/10/13 13:57:56;;;;;;;12.40;3.70;;;;;;;24.43;35.14;93665.72;5026066;28;20068;-61
2023/10/13 14:00:37;;;;;;;8.63;3.20;;;;;;;24.52;35.55;93659.09;5027414;28;20054;-62
2023/10/13 14:03:05;;;;;;;6.63;3.10;;;;;;;24.48;35.52;93664.94;5027303;28;20060;-61
2023/10/13 14:05:32;;;;;;;9.93;3.20;;;;;;;24.45;35.30;93654.75;5027918;28;20040;-61
2023/10/13 14:07:59;;;;;;;8.50;3.33;;;;;;;24.42;35.35;93657.81;5028544;28;20045;-61
2023/10/13 14:10:57;;;;;;;8.18;3.15;;;;;;;24.44;35.59;93652.44;5028238;28;20046;-61
2023/10/13 14:13:22;;;;;;;8.48;3.10;;;;;;;24.34;35.68;93649.16;5018340;28;20041;-61
2023/10/13 14:15:49;;;;;;;7.70;3.30;;;;;;;24.36;35.69;93643.78;5028650;28;20118;-61
2023/10/13 14:18:15;;;;;;;5.80;3.20;;;;;;;24.36;35.41;93643.78;5028053;28;20051;-61
2023/10/13 14:20:44;;;;;;;6.30;2.90;;;;;;;24.44;35.80;93641.22;5027015;28;20374;-60
2023/10/13 14:23:14;;;;;;;7.32;3.22;;;;;;;24.32;35.57;93641.25;5026014;28;20059;-61
2023/10/13 14:25:44;;;;;;;7.93;3.40;;;;;;;24.38;35.78;93637.69;5027128;28;20065;-62
2023/10/13 14:28:16;;;;;;;7.25;3.30;;;;;;;24.37;35.97;93633.34;5026287;28;20454;-59
2023/10/13 14:30:43;;;;;;;5.75;3.08;;;;;;;24.45;35.60;93637.16;5027880;28;20033;-59
2023/10/13 14:33:10;;;;;;;6.27;3.10;;;;;;;24.48;35.87;93622.09;5027655;28;20386;-58
2023/10/13 14:35:37;;;;;;;6.80;3.08;;;;;;;24.40;35.68;93629.50;5015487;28;20046;-57
2023/10/13 14:38:04;;;;;;;6.95;3.08;;;;;;;24.33;35.63;93631.56;5026285;28;20059;-66
2023/10/13 14:40:31;;;;;;;7.75;3.10;;;;;;;24.20;36.22;93622.16;5026009;28;20050;-67
2023/10/13 14:42:57;;;;;;;6.68;3.28;;;;;;;24.25;35.68;93621.41;5027934;28;20042;-66
2023/10/13 14:45:24;;;;;;;7.40;3.50;;;;;;;24.34;35.59;93621.09;5027395;28;20042;-66
2023/10/13 14:47:52;;;;;;;8.40;3.00;;;;;;;24.24;35.36;93617.06;5027906;28;20271;-66
2023/10/13 14:50:19;;;;;;;6.97;3.10;;;;;;;24.16;35.91;93614.00;5027345;28;20049;-66
2023/10/13 14:52:48;;;;;;;7.28;3.10;;;;;;;24.21;36.04;93612.47;5027802;28;20045;-67
2023/10/13 14:55:22;;;;;;;8.50;3.03;;;;;;;24.07;35.90;93606.63;5027743;28;20071;-66
2023/10/13 14:57:49;;;;;;;9.10;2.97;;;;;;;24.04;35.90;93601.28;5026468;28;20045;-61
2023/10/13 15:00:27;;;;;;;6.72;3.00;;;;;;;24.03;35.73;93599.75;5027194;28;20685;-61
2023/10/13 15:02:54;;;;;;;7.00;3.00;;;;;;;24.02;36.05;93589.81;5028102;28;20045;-61
2023/10/13 15:05:22;;;;;;;7.32;2.85;;;;;;;23.91;36.34;93599.00;5027385;28;20413;-62
2023/10/13 15:07:49;;;;;;;8.48;3.10;;;;;;;23.86;36.42;93589.31;5027264;28;20047;-61
2023/10/13 15:10:16;;;;;;;7.37;2.87;;;;;;;23.91;36.33;93596.19;5027512;28;20715;-61
2023/10/13 15:12:46;;;;;;;8.02;2.90;;;;;;;23.83;36.56;93592.38;5027528;28;20124;-60
2023/10/13 15:15:13;;;;;;;8.43;3.20;;;;;;;23.81;36.54;93595.69;5027238;28;20102;-61
2023/10/13 15:17:40;;;;;;;6.65;2.63;;;;;;;23.68;36.26;93581.41;5027420;28;20041;-62
2023/10/13 15:20:10;;;;;;;8.00;3.00;;;;;;;23.61;36.24;93590.31;5027404;28;20487;-60
2023/10/13 15:22:37;;;;;;;8.97;3.00;;;;;;;23.49;36.20;93581.91;5027287;28;20041;-61
2023/10/13 15:25:16;;;;;;;5.97;3.08;;;;;;;23.44;37.12;93585.50;5027720;28;20110;-60
2023/10/13 15:27:50;;;;;;;7.00;3.00;;;;;;;23.35;36.90;93587.75;5014935;28;21471;-62
2023/10/13 15:30:30;;;;;;;6.50;2.80;;;;;;;23.21;37.02;93581.88;5026987;28;20072;-61
2023/10/13 15:32:57;;;;;;;7.10;2.60;;;;;;;23.08;37.29;93581.59;5027643;28;20049;-61
2023/10/13 15:35:28;;;;;;;6.60;2.90;;;;;;;22.82;37.30;93581.75;5027115;28;20091;-60
2023/10/13 15:37:56;;;;;;;7.80;3.03;;;;;;;22.71;37.28;93583.25;5031234;28;20045;-60
2023/10/13 15:40:23;;;;;;;8.18;3.28;;;;;;;22.45;38.28;93577.78;5030372;28;20406;-61
2023/10/13 15:42:50;;;;;;;6.38;2.83;;;;;;;22.36;38.02;93582.84;5031025;28;20083;-61